createdAt,value
2022-12-13T00:01:46.488Z,97736.75
2022-12-13T00:04:15.858Z,97741.19
2022-12-13T00:06:43.943Z,97740.06
2022-12-13T00:09:13.731Z,97732.16
2022-12-13T00:11:54.707Z,97740.13
2022-12-13T00:14:22.465Z,97744.78
2022-12-13T00:16:51.166Z,97745.03
2022-12-13T00:19:20.614Z,97739.25
2022-12-13T00:21:48.473Z,97740.53
2022-12-13T00:24:25.188Z,97740.59
2022-12-13T00:26:55.600Z,97747.28
2022-12-13T00:29:23.262Z,97737.13
2022-12-13T00:31:59.314Z,97731.91
2022-12-13T00:34:29.804Z,97731.94
2022-12-13T00:36:59.099Z,97734.72
2022-12-13T00:39:59.648Z,97729.59
2022-12-13T00:42:27.259Z,97728.31
2022-12-13T00:44:55.816Z,97716.75
2022-12-13T00:47:24.393Z,97720.31
2022-12-13T00:49:53.430Z,97721.44
2022-12-13T00:52:21.357Z,97721.44
2022-12-13T00:54:49.031Z,97720.47
2022-12-13T00:57:16.678Z,97720.41
2022-12-13T00:59:44.360Z,97720.41
2022-12-13T01:02:12.023Z,97720.53
2022-12-13T01:04:39.730Z,97718.75
2022-12-13T01:07:08.941Z,97710.03
2022-12-13T01:09:36.703Z,97706.53
2022-12-13T01:12:06.520Z,97704.53
2022-12-13T01:14:36.484Z,97705.84
2022-12-13T01:17:04.475Z,97698.59
2022-12-13T01:19:32.785Z,97704.53
2022-12-13T01:22:03.297Z,97696.56
2022-12-13T01:24:32.954Z,97697.69
2022-12-13T01:27:01.111Z,97704.53
2022-12-13T01:29:29.375Z,97700.69
2022-12-13T01:31:57.274Z,97690.59
2022-12-13T01:34:26.625Z,97692.69
2022-12-13T01:36:57.963Z,97699.91
2022-12-13T01:39:27.660Z,97702.94
2022-12-13T01:41:59.799Z,97702.94
2022-12-13T01:44:59.354Z,97701.31
2022-12-13T01:47:32.574Z,97708.47
2022-12-13T01:50:04.097Z,97703.91
2022-12-13T01:52:34.764Z,97706.88
2022-12-13T01:55:05.187Z,97703.03
2022-12-13T01:57:36.164Z,97701.94
2022-12-13T02:00:05.379Z,97705.25
2022-12-13T02:02:33.065Z,97697.84
2022-12-13T02:05:07.920Z,97704.00
2022-12-13T02:07:46.375Z,97703.41
2022-12-13T02:10:14.217Z,97695.16
2022-12-13T02:12:43.505Z,97690.94
2022-12-13T02:15:14.463Z,97688.84
2022-12-13T02:18:01.271Z,97694.00
2022-12-13T02:21:16.866Z,97684.16
2022-12-13T02:24:13.632Z,97688.69
2022-12-13T02:26:49.218Z,97685.03
2022-12-13T02:30:01.567Z,97687.78
2022-12-13T02:32:36.710Z,97686.81
2022-12-13T02:35:10.067Z,97683.44
2022-12-13T02:37:49.822Z,97681.66
2022-12-13T02:40:27.326Z,97684.41
2022-12-13T02:43:01.655Z,97682.78
2022-12-13T02:45:33.927Z,97678.78
2022-12-13T02:48:06.817Z,97678.78
2022-12-13T02:50:35.557Z,97675.84
2022-12-13T02:53:10.630Z,97682.47
2022-12-13T02:55:39.685Z,97675.41
2022-12-13T02:58:07.457Z,97675.53
2022-12-13T03:00:45.235Z,97674.91
2022-12-13T03:03:26.900Z,97674.28
2022-12-13T03:06:24.768Z,97672.81
2022-12-13T03:09:13.932Z,97664.03
2022-12-13T03:12:17.085Z,97665.16
2022-12-13T03:14:54.700Z,97661.81
2022-12-13T03:17:24.866Z,97651.19
2022-12-13T03:19:55.451Z,97655.72
2022-12-13T03:22:23.194Z,97650.06
2022-12-13T03:24:52.554Z,97656.00
2022-12-13T03:27:20.357Z,97651.13
2022-12-13T03:29:48.122Z,97645.91
2022-12-13T03:32:15.784Z,97646.19
2022-12-13T03:34:46.069Z,97637.69
2022-12-13T03:37:16.690Z,97635.28
2022-12-13T03:39:44.550Z,97630.16
2022-12-13T03:42:12.296Z,97640.63
2022-12-13T03:44:40.058Z,97632.81
2022-12-13T03:47:07.713Z,97631.72
2022-12-13T03:49:35.858Z,97637.38
2022-12-13T03:52:03.779Z,97636.75
2022-12-13T03:54:32.770Z,97629.97
2022-12-13T03:57:01.231Z,97633.03
2022-12-13T03:59:28.962Z,97634.97
2022-12-13T04:01:56.699Z,97638.84
2022-12-13T04:04:24.429Z,97630.94
2022-12-13T04:06:52.231Z,97634.03
2022-12-13T04:09:19.917Z,97636.06
2022-12-13T04:12:07.069Z,97636.13
2022-12-13T04:14:34.767Z,97631.91
2022-12-13T04:17:02.496Z,97632.41
2022-12-13T04:19:30.164Z,97625.00
2022-12-13T04:21:57.826Z,97630.19
2022-12-13T04:24:30.904Z,97625.38
2022-12-13T04:27:01.464Z,97622.16
2022-12-13T04:29:33.810Z,97625.06
2022-12-13T04:32:02.821Z,97620.53
2022-12-13T04:34:36.757Z,97615.91
2022-12-13T04:37:05.190Z,97624.41
2022-12-13T04:39:34.242Z,97609.47
2022-12-13T04:42:05.401Z,97610.94
2022-12-13T04:44:36.923Z,97616.84
2022-12-13T04:47:05.302Z,97616.25
2022-12-13T04:49:42.856Z,97623.69
2022-12-13T04:52:11.730Z,97619.13
2022-12-13T04:54:39.720Z,97621.66
2022-12-13T04:57:12.392Z,97620.75
2022-12-13T04:59:40.708Z,97627.09
2022-12-13T05:02:09.816Z,97620.22
2022-12-13T05:04:37.600Z,97622.13
2022-12-13T05:07:05.560Z,97621.63
2022-12-13T05:09:33.448Z,97619.22
2022-12-13T05:12:02.159Z,97618.75
2022-12-13T05:14:32.096Z,97625.16
2022-12-13T05:17:00.081Z,97625.53
2022-12-13T05:19:31.120Z,97630.47
2022-12-13T05:22:01.097Z,97623.88
2022-12-13T05:24:29.936Z,97627.84
2022-12-13T05:26:58.479Z,97627.91
2022-12-13T05:29:27.528Z,97621.63
2022-12-13T05:31:56.663Z,97623.69
2022-12-13T05:34:25.995Z,97619.66
2022-12-13T05:36:53.805Z,97632.13
2022-12-13T05:39:28.035Z,97622.91
2022-12-13T05:42:01.768Z,97630.94
2022-12-13T05:44:30.076Z,97627.09
2022-12-13T05:46:59.196Z,97624.59
2022-12-13T05:49:29.884Z,97618.81
2022-12-13T05:51:57.594Z,97624.03
2022-12-13T05:54:25.461Z,97617.13
2022-12-13T05:56:53.210Z,97616.81
2022-12-13T05:59:20.967Z,97612.94
2022-12-13T06:01:48.665Z,97613.84
2022-12-13T06:04:22.409Z,97616.34
2022-12-13T06:06:51.317Z,97615.16
2022-12-13T06:09:19.562Z,97617.53
2022-12-13T06:11:47.256Z,97606.84
2022-12-13T06:14:21.583Z,97609.56
2022-12-13T06:16:49.789Z,97616.75
2022-12-13T06:19:19.123Z,97619.13
2022-12-13T06:21:46.887Z,97615.16
2022-12-13T06:24:15.957Z,97611.47
2022-12-13T06:26:45.374Z,97620.47
2022-12-13T06:29:24.088Z,97613.06
2022-12-13T06:31:54.759Z,97611.91
2022-12-13T06:34:31.405Z,97617.25
2022-12-13T06:36:59.161Z,97614.06
2022-12-13T06:39:32.303Z,97615.53
2022-12-13T06:42:01.622Z,97619.38
2022-12-13T06:44:29.811Z,97618.75
2022-12-13T06:47:12.219Z,97619.22
2022-12-13T06:49:44.575Z,97614.19
2022-12-13T06:52:13.684Z,97619.09
2022-12-13T06:54:41.677Z,97619.09
2022-12-13T06:57:09.566Z,97619.44
2022-12-13T06:59:37.303Z,97615.03
2022-12-13T07:02:05.396Z,97611.63
2022-12-13T07:04:33.824Z,97616.72
2022-12-13T07:07:03.407Z,97612.38
2022-12-13T07:09:31.768Z,97605.00
2022-12-13T07:12:00.397Z,97605.16
2022-12-13T07:14:28.208Z,97612.25
2022-12-13T07:17:03.117Z,97603.56
2022-12-13T07:19:35.124Z,97601.69
2022-12-13T07:22:06.316Z,97609.97
2022-12-13T07:24:34.976Z,97616.72
2022-12-13T07:27:03.066Z,97621.03
2022-12-13T07:29:30.755Z,97628.09
2022-12-13T07:32:01.396Z,97629.88
2022-12-13T07:34:30.565Z,97627.78
2022-12-13T07:36:58.535Z,97632.91
2022-12-13T07:39:27.765Z,97630.59
2022-12-13T07:41:56.526Z,97633.22
2022-12-13T07:44:24.473Z,97632.56
2022-12-13T07:46:52.294Z,97629.97
2022-12-13T07:49:20.129Z,97632.69
2022-12-13T07:51:47.920Z,97634.44
2022-12-13T07:54:15.817Z,97627.78
2022-12-13T07:57:02.754Z,97626.84
2022-12-13T07:59:32.803Z,97622.28
2022-12-13T08:02:01.857Z,97619.41
2022-12-13T08:04:29.971Z,97623.59
2022-12-13T08:07:08.804Z,97633.03
2022-12-13T08:09:36.526Z,97627.81
2022-12-13T08:12:06.384Z,97627.22
2022-12-13T08:14:34.593Z,97630.34
2022-12-13T08:17:02.396Z,97633.97
2022-12-13T08:19:30.188Z,97636.81
2022-12-13T08:22:01.570Z,97642.22
2022-12-13T08:24:31.463Z,97638.34
2022-12-13T08:27:02.100Z,97645.97
2022-12-13T08:29:33.891Z,97642.13
2022-12-13T08:32:03.218Z,97643.22
2022-12-13T08:34:31.761Z,97641.34
2022-12-13T08:37:02.930Z,97645.56
2022-12-13T08:39:34.492Z,97641.75
2022-12-13T08:42:14.924Z,97647.09
2022-12-13T08:44:47.192Z,97649.25
2022-12-13T08:47:23.396Z,97653.50
2022-12-13T08:50:04.158Z,97654.47
2022-12-13T08:52:40.735Z,97654.22
2022-12-13T08:55:10.567Z,97650.47
2022-12-13T08:57:38.673Z,97650.53
2022-12-13T09:00:13.740Z,97658.09
2022-12-13T09:02:41.821Z,97656.16
2022-12-13T09:05:11.104Z,97657.91
2022-12-13T09:07:39.539Z,97672.09
2022-12-13T09:10:27.012Z,97661.50
2022-12-13T09:13:01.400Z,97657.41
2022-12-13T09:15:34.367Z,97658.53
2022-12-13T09:18:05.188Z,97665.38
2022-12-13T09:20:40.841Z,97659.38
2022-12-13T09:23:13.842Z,97659.38
2022-12-13T09:25:44.915Z,97651.63
2022-12-13T09:28:20.667Z,97656.66
2022-12-13T09:30:50.362Z,97648.34
2022-12-13T09:33:29.896Z,97649.06
2022-12-13T09:36:01.369Z,97651.53
2022-12-13T09:38:29.586Z,97653.50
2022-12-13T09:41:01.248Z,97650.03
2022-12-13T09:43:42.372Z,97652.28
2022-12-13T09:46:23.425Z,97656.97
2022-12-13T09:49:01.440Z,97653.88
2022-12-13T09:51:43.758Z,97643.53
2022-12-13T09:54:19.302Z,97646.72
2022-12-13T09:56:51.070Z,97646.22
2022-12-13T09:59:21.729Z,97634.97
2022-12-13T10:01:52.349Z,97637.25
2022-12-13T10:04:20.521Z,97635.50
2022-12-13T10:07:21.427Z,97635.19
2022-12-13T10:09:49.918Z,97630.88
2022-12-13T10:12:18.285Z,97627.09
2022-12-13T10:15:08.432Z,97622.41
2022-12-13T10:17:40.993Z,97617.91
2022-12-13T10:20:17.484Z,97620.47
2022-12-13T10:23:01.689Z,97616.31
2022-12-13T10:25:51.178Z,97623.66
2022-12-13T10:28:25.811Z,97620.22
2022-12-13T10:30:53.596Z,97606.69
2022-12-13T10:33:26.031Z,97601.06
2022-12-13T10:36:35.915Z,97601.19
2022-12-13T10:39:04.400Z,97613.13
2022-12-13T10:41:35.886Z,97608.31
2022-12-13T10:44:22.582Z,97606.94
2022-12-13T10:47:03.221Z,97598.28
2022-12-13T10:49:40.254Z,97609.00
2022-12-13T10:55:56.574Z,97589.59
2022-12-13T10:58:37.983Z,97581.91
2022-12-13T11:01:21.378Z,97589.13
2022-12-13T11:04:27.168Z,97591.75
2022-12-13T11:06:58.514Z,97587.19
2022-12-13T11:09:28.437Z,97585.94
2022-12-13T11:11:59.038Z,97583.56
2022-12-13T11:14:55.509Z,97577.13
2022-12-13T11:17:48.757Z,97576.44
2022-12-13T11:20:20.912Z,97579.44
2022-12-13T11:22:52.045Z,97574.13
2022-12-13T11:25:38.662Z,97581.41
2022-12-13T11:28:26.863Z,97577.03
2022-12-13T11:31:09.304Z,97565.69
2022-12-13T11:33:51.759Z,97560.00
2022-12-13T11:36:32.904Z,97558.81
2022-12-13T11:39:15.516Z,97568.16
2022-12-13T11:42:18.734Z,97562.44
2022-12-13T11:45:00.026Z,97555.47
2022-12-13T11:47:35.449Z,97548.06
2022-12-13T11:50:06.415Z,97550.19
2022-12-13T11:52:41.465Z,97546.38
2022-12-13T11:55:18.518Z,97536.81
2022-12-13T11:57:52.759Z,97531.09
2022-12-13T12:00:35.486Z,97528.88
2022-12-13T12:03:21.561Z,97522.94
2022-12-13T12:05:55.958Z,97514.66
2022-12-13T12:08:34.582Z,97508.56
2022-12-13T12:11:10.314Z,97508.34
2022-12-13T12:14:24.721Z,97509.44
2022-12-13T12:16:55.211Z,97506.75
2022-12-13T12:19:25.124Z,97516.44
2022-12-13T12:22:16.464Z,97502.78
2022-12-13T12:25:25.418Z,97505.91
2022-12-13T12:28:04.494Z,97508.81
2022-12-13T12:30:42.528Z,97513.50
2022-12-13T12:33:19.135Z,97501.34
2022-12-13T12:36:27.133Z,97504.63
2022-12-13T12:39:26.505Z,97496.59
2022-12-13T12:42:11.755Z,97495.47
2022-12-13T12:44:52.817Z,97497.69
2022-12-13T12:51:16.569Z,97491.38
2022-12-13T12:54:32.137Z,97493.25
2022-12-13T12:57:08.287Z,97494.22
2022-12-13T12:59:45.213Z,97505.13
2022-12-13T13:02:19.332Z,97495.44
2022-12-13T13:04:51.278Z,97493.84
2022-12-13T13:07:25.143Z,97499.66
2022-12-13T13:09:54.852Z,97500.69
2022-12-13T13:12:29.438Z,97507.63
2022-12-13T13:15:36.014Z,97500.91
2022-12-13T13:19:00.162Z,97500.44
2022-12-13T13:21:34.609Z,97496.63
2022-12-13T13:24:15.451Z,97494.50
2022-12-13T13:26:45.048Z,97500.53
2022-12-13T13:29:26.592Z,97485.84
2022-12-13T13:32:01.439Z,97491.94
2022-12-13T13:34:33.768Z,97496.81
2022-12-13T13:37:03.312Z,97495.06
2022-12-13T13:39:56.939Z,97503.97
2022-12-13T13:42:25.874Z,97501.97
2022-12-13T13:45:22.889Z,97490.84
2022-12-13T13:48:19.321Z,97485.38
2022-12-13T13:51:20.165Z,97476.81
2022-12-13T13:54:07.689Z,97479.75
2022-12-13T13:57:13.888Z,97465.00
2022-12-13T14:00:11.352Z,97472.97
2022-12-13T14:03:33.353Z,97467.56
2022-12-13T14:06:51.030Z,97461.34
2022-12-13T14:09:50.050Z,97481.28
2022-12-13T14:13:04.031Z,97472.44
2022-12-13T14:16:06.343Z,97481.19
2022-12-13T14:19:05.667Z,97478.59
2022-12-13T14:21:40.855Z,97480.41
2022-12-13T14:24:20.299Z,97485.56
2022-12-13T14:27:17.036Z,97489.00
2022-12-13T14:29:48.528Z,97483.94
2022-12-13T14:32:29.447Z,97489.94
2022-12-13T14:35:25.809Z,97489.13
2022-12-13T14:38:00.265Z,97484.63
2022-12-13T14:40:31.971Z,97477.91
2022-12-13T14:43:00.495Z,97479.31
2022-12-13T14:45:31.141Z,97476.59
2022-12-13T14:48:00.649Z,97475.56
2022-12-13T14:50:30.334Z,97478.19
2022-12-13T14:52:58.238Z,97472.28
2022-12-13T14:55:29.203Z,97470.25
2022-12-13T14:57:59.826Z,97471.34
2022-12-13T15:00:31.017Z,97475.19
2022-12-13T15:03:01.341Z,97473.38
2022-12-13T15:05:33.063Z,97474.81
2022-12-13T15:08:10.535Z,97479.38
2022-12-13T15:10:41.509Z,97472.69
2022-12-13T15:13:29.386Z,97461.97
2022-12-13T15:16:01.204Z,97466.78
2022-12-13T15:18:30.706Z,97473.09
2022-12-13T15:20:58.884Z,97472.56
2022-12-13T15:23:31.282Z,97478.50
2022-12-13T15:26:01.825Z,97478.50
2022-12-13T15:28:35.096Z,97474.25
2022-12-13T15:31:05.396Z,97473.72
2022-12-13T15:33:37.928Z,97473.25
2022-12-13T15:36:11.941Z,97476.56
2022-12-13T15:38:48.992Z,97475.50
2022-12-13T15:41:19.055Z,97472.88
2022-12-13T15:43:50.300Z,97473.53
2022-12-13T15:46:26.030Z,97472.94
2022-12-13T15:48:55.388Z,97476.06
2022-12-13T15:51:28.847Z,97483.16
2022-12-13T15:54:04.843Z,97480.22
2022-12-13T15:56:54.390Z,97470.88
2022-12-13T15:59:28.893Z,97473.53
2022-12-13T16:02:23.598Z,97465.59
2022-12-13T16:04:52.537Z,97469.94
2022-12-13T16:07:24.505Z,97464.69
2022-12-13T16:10:09.285Z,97468.66
2022-12-13T16:12:40.779Z,97466.28
2022-12-13T16:15:20.511Z,97463.53
2022-12-13T16:18:07.608Z,97468.88
2022-12-13T16:20:35.591Z,97469.41
2022-12-13T16:23:09.160Z,97456.03
2022-12-13T16:25:37.569Z,97452.31
2022-12-13T16:28:05.623Z,97446.00
2022-12-13T16:30:59.989Z,97448.16
2022-12-13T16:33:40.385Z,97440.09
2022-12-13T16:36:10.088Z,97443.88
2022-12-13T16:38:38.151Z,97439.84
2022-12-13T16:41:09.413Z,97440.56
2022-12-13T16:43:40.676Z,97445.34
2022-12-13T16:47:14.683Z,97441.84
2022-12-13T16:49:31.409Z,97441.06
2022-12-13T16:51:59.584Z,97434.38
2022-12-13T16:54:27.993Z,97429.94
2022-12-13T16:56:55.882Z,97427.31
2022-12-13T16:59:25.936Z,97418.84
2022-12-13T17:01:55.406Z,97421.44
2022-12-13T17:04:27.035Z,97421.84
2022-12-13T17:06:55.544Z,97418.19
2022-12-13T17:09:23.980Z,97411.16
2022-12-13T17:11:51.692Z,97413.38
2022-12-13T17:14:19.396Z,97412.72
2022-12-13T17:16:47.367Z,97408.97
2022-12-13T17:19:17.458Z,97406.31
2022-12-13T17:21:45.339Z,97405.13
2022-12-13T17:24:15.332Z,97406.91
2022-12-13T17:26:54.256Z,97404.19
2022-12-13T17:29:23.606Z,97406.19
2022-12-13T17:31:51.284Z,97416.56
2022-12-13T17:34:20.353Z,97408.56
2022-12-13T17:36:48.069Z,97405.88
2022-12-13T17:39:15.827Z,97409.63
2022-12-13T17:41:43.491Z,97403.34
2022-12-13T17:44:22.487Z,97382.53
2022-12-13T17:46:55.242Z,97386.72
2022-12-13T17:49:24.948Z,97381.97
2022-12-13T17:51:53.861Z,97373.56
2022-12-13T17:54:21.986Z,97370.31
2022-12-13T17:56:49.709Z,97374.06
2022-12-13T17:59:17.917Z,97370.50
2022-12-13T18:01:46.659Z,97378.53
2022-12-13T18:04:14.705Z,97376.38
2022-12-13T18:06:44.783Z,97370.06
2022-12-13T18:09:13.963Z,97379.16
2022-12-13T18:11:41.913Z,97392.59
2022-12-13T18:14:10.171Z,97387.81
2022-12-13T18:16:39.258Z,97379.81
2022-12-13T18:19:08.953Z,97381.38
2022-12-13T18:21:37.128Z,97381.94
2022-12-13T18:24:07.221Z,97385.19
2022-12-13T18:26:35.491Z,97397.47
2022-12-13T18:29:03.567Z,97398.75
2022-12-13T18:31:31.428Z,97403.34
2022-12-13T18:33:59.442Z,97397.16
2022-12-13T18:36:27.314Z,97397.69
2022-12-13T18:38:55.314Z,97389.94
2022-12-13T18:41:27.899Z,97392.06
2022-12-13T18:43:59.512Z,97390.91
2022-12-13T18:46:28.616Z,97403.25
2022-12-13T18:48:56.666Z,97407.78
2022-12-13T18:51:24.890Z,97404.59
2022-12-13T18:53:53.324Z,97403.72
2022-12-13T18:56:21.153Z,97398.34
2022-12-13T18:58:51.447Z,97391.88
2022-12-13T19:01:19.717Z,97397.47
2022-12-13T19:03:49.110Z,97406.00
2022-12-13T19:06:18.671Z,97391.84
2022-12-13T19:08:48.941Z,97387.59
2022-12-13T19:11:16.901Z,97387.91
2022-12-13T19:13:45.836Z,97391.09
2022-12-13T19:16:17.570Z,97389.81
2022-12-13T19:18:45.377Z,97385.50
2022-12-13T19:21:17.443Z,97391.41
2022-12-13T19:23:49.517Z,97387.63
2022-12-13T19:26:21.610Z,97388.69
2022-12-13T19:28:49.383Z,97388.69
2022-12-13T19:31:18.833Z,97387.34
2022-12-13T19:33:49.648Z,97380.25
2022-12-13T19:36:17.392Z,97388.84
2022-12-13T19:38:45.071Z,97382.44
2022-12-13T19:41:15.100Z,97372.88
2022-12-13T19:43:46.569Z,97373.38
2022-12-13T19:46:21.732Z,97355.88
2022-12-13T19:51:48.935Z,97340.34
2022-12-13T19:54:16.722Z,97344.66
2022-12-13T19:56:44.532Z,97355.78
2022-12-13T19:59:12.313Z,97348.94
2022-12-13T20:01:41.494Z,97330.38
2022-12-13T20:04:10.270Z,97322.81
2022-12-13T20:06:38.078Z,97324.50
2022-12-13T20:09:05.793Z,97311.63
2022-12-13T20:11:33.562Z,97319.75
2022-12-13T20:14:01.310Z,97307.47
2022-12-13T20:16:29.241Z,97307.50
2022-12-13T20:18:59.709Z,97313.38
2022-12-13T20:21:28.089Z,97306.44
2022-12-13T20:23:56.548Z,97322.44
2022-12-13T20:26:26.820Z,97320.03
2022-12-13T20:28:54.632Z,97308.50
2022-12-13T20:31:24.710Z,97304.31
2022-12-13T20:33:55.571Z,97293.09
2022-12-13T20:36:27.742Z,97288.84
2022-12-13T20:38:57.055Z,97292.06
2022-12-13T20:41:26.490Z,97295.19
2022-12-13T20:43:55.855Z,97275.44
2022-12-13T20:46:25.268Z,97285.13
2022-12-13T20:48:53.820Z,97267.50
2022-12-13T20:51:23.351Z,97267.56
2022-12-13T20:53:53.283Z,97276.63
2022-12-13T20:56:23.395Z,97276.59
2022-12-13T20:58:52.043Z,97280.53
2022-12-13T21:01:38.098Z,97286.19
2022-12-13T21:04:08.195Z,97292.56
2022-12-13T21:06:38.598Z,97295.84
2022-12-13T21:09:09.563Z,97281.41
2022-12-13T21:11:39.834Z,97269.22
2022-12-13T21:14:16.934Z,97253.16
2022-12-13T21:16:48.303Z,97243.16
2022-12-13T21:19:19.268Z,97243.53
2022-12-13T21:21:47.409Z,97249.94
2022-12-13T21:24:18.153Z,97253.66
2022-12-13T21:26:46.746Z,97255.19
2022-12-13T21:29:16.461Z,97253.13
2022-12-13T21:31:49.127Z,97248.31
2022-12-13T21:34:18.233Z,97227.09
2022-12-13T21:36:47.749Z,97240.63
2022-12-13T21:39:18.579Z,97244.34
2022-12-13T21:41:46.784Z,97239.56
2022-12-13T21:44:16.913Z,97244.09
2022-12-13T21:49:33.730Z,97254.28
2022-12-13T21:52:02.030Z,97248.94
2022-12-13T21:54:33.616Z,97250.03
2022-12-13T21:57:18.804Z,97248.88
2022-12-13T21:59:47.510Z,97252.09
2022-12-13T22:02:18.352Z,97252.09
2022-12-13T22:04:49.653Z,97258.53
2022-12-13T22:07:35.108Z,97255.56
2022-12-13T22:10:04.438Z,97251.34
2022-12-13T22:12:35.761Z,97242.31
2022-12-13T22:15:05.096Z,97230.22
2022-12-13T22:17:57.945Z,97226.81
2022-12-13T22:20:26.517Z,97233.38
2022-12-13T22:22:54.463Z,97232.34
2022-12-13T22:25:23.601Z,97235.53
2022-12-13T22:27:51.630Z,97239.88
2022-12-13T22:30:19.430Z,97229.78
2022-12-13T22:32:47.230Z,97234.03
2022-12-13T22:35:15.119Z,97239.88
2022-12-13T22:37:42.972Z,97230.00
2022-12-13T22:40:12.025Z,97228.34
2022-12-13T22:42:41.303Z,97228.88
2022-12-13T22:45:18.127Z,97223.81
2022-12-13T22:47:48.011Z,97210.25
2022-12-13T22:50:16.620Z,97195.13
2022-12-13T22:52:45.053Z,97193.16
2022-12-13T22:55:12.911Z,97182.34
2022-12-13T22:57:42.147Z,97195.38
2022-12-13T23:00:16.890Z,97189.69
2022-12-13T23:02:45.017Z,97181.78
2022-12-13T23:05:13.274Z,97180.28
2022-12-13T23:07:40.989Z,97186.06
2022-12-13T23:10:29.469Z,97189.88
2022-12-13T23:13:03.901Z,97184.03
2022-12-13T23:15:32.082Z,97181.81
2022-12-13T23:18:00.277Z,97171.16
2022-12-13T23:20:29.634Z,97165.63
2022-12-13T23:22:57.398Z,97170.81
2022-12-13T23:25:25.065Z,97156.66
2022-12-13T23:27:52.801Z,97158.78
2022-12-13T23:30:21.850Z,97149.66
2022-12-13T23:32:49.574Z,97149.44
2022-12-13T23:35:17.357Z,97147.44
2022-12-13T23:37:45.012Z,97145.88
2022-12-13T23:40:16.405Z,97151.22
2022-12-13T23:42:44.138Z,97147.66
2022-12-13T23:45:12.108Z,97141.88
2022-12-13T23:47:41.180Z,97145.00
2022-12-13T23:50:09.980Z,97134.84
2022-12-13T23:52:38.748Z,97131.72
2022-12-13T23:55:07.257Z,97138.53
2022-12-13T23:57:34.948Z,97135.53
